createdAt,value
2023-05-17T00:04:20.594Z,367.29
2023-05-17T00:09:40.138Z,366.81
2023-05-17T00:14:55.175Z,366.48
2023-05-17T00:20:38.413Z,366.23
2023-05-17T00:25:56.263Z,366.40
2023-05-17T00:31:13.711Z,365.48
2023-05-17T00:36:17.102Z,364.59
2023-05-17T00:41:27.447Z,363.83
2023-05-17T00:46:34.873Z,364.45
2023-05-17T00:51:42.455Z,363.96
2023-05-17T00:56:58.177Z,364.05
2023-05-17T01:02:04.113Z,363.93
2023-05-17T01:07:18.367Z,364.16
2023-05-17T01:12:31.236Z,363.73
2023-05-17T01:18:30.557Z,363.78
2023-05-17T01:24:02.566Z,363.55
2023-05-17T01:29:16.764Z,363.83
2023-05-17T01:36:40.543Z,363.51
2023-05-17T01:40:17.720Z,363.66
2023-05-17T01:45:25.293Z,363.45
2023-05-17T01:50:32.833Z,363.14
2023-05-17T01:55:40.324Z,362.70
2023-05-17T02:00:47.376Z,362.38
2023-05-17T02:05:54.549Z,362.09
2023-05-17T02:11:08.056Z,361.52
2023-05-17T02:16:15.259Z,362.30
2023-05-17T02:21:22.477Z,362.27
2023-05-17T02:26:29.791Z,361.81
2023-05-17T02:31:37.024Z,362.43
2023-05-17T02:36:44.199Z,362.17
2023-05-17T02:41:51.791Z,362.01
2023-05-17T02:47:05.693Z,361.67
2023-05-17T02:52:14.823Z,361.85
2023-05-17T02:57:22.748Z,361.59
2023-05-17T03:03:22.409Z,360.73
2023-05-17T03:08:51.961Z,361.23
2023-05-17T03:13:43.868Z,360.73
2023-05-17T03:19:26.935Z,360.07
2023-05-17T03:24:34.039Z,360.08
2023-05-17T03:30:20.996Z,359.34
2023-05-17T03:35:28.449Z,359.49
2023-05-17T03:40:35.371Z,359.00
2023-05-17T03:45:42.655Z,358.29
2023-05-17T03:50:49.773Z,358.36
2023-05-17T03:55:56.987Z,357.99
2023-05-17T04:01:04.371Z,357.34
2023-05-17T04:06:11.538Z,357.15
2023-05-17T04:11:18.852Z,355.93
2023-05-17T04:16:35.567Z,355.70
2023-05-17T04:21:40.757Z,355.17
2023-05-17T04:26:48.090Z,355.00
2023-05-17T04:31:55.527Z,354.63
2023-05-17T04:37:02.653Z,354.13
2023-05-17T04:42:09.946Z,353.70
2023-05-17T04:47:17.532Z,353.29
2023-05-17T04:52:24.673Z,353.59
2023-05-17T04:57:31.910Z,352.97
2023-05-17T05:02:39.411Z,352.43
2023-05-17T05:07:46.516Z,352.03
2023-05-17T05:12:53.744Z,351.71
2023-05-17T05:18:01.161Z,351.97
2023-05-17T05:23:08.192Z,351.36
2023-05-17T05:28:15.762Z,351.62
2023-05-17T05:33:24.076Z,351.00
2023-05-17T05:38:41.801Z,350.91
2023-05-17T05:43:49.473Z,350.70
2023-05-17T05:49:06.720Z,350.42
2023-05-17T05:54:50.727Z,350.20
2023-05-17T06:00:48.926Z,350.30
2023-05-17T06:06:36.243Z,350.31
2023-05-17T06:11:55.730Z,350.35
2023-05-17T06:17:01.815Z,350.15
2023-05-17T06:22:27.031Z,350.24
2023-05-17T06:27:37.217Z,349.52
2023-05-17T06:32:41.334Z,348.90
2023-05-17T06:38:24.544Z,349.51
2023-05-17T06:43:32.178Z,349.12
2023-05-17T06:48:58.878Z,349.09
2023-05-17T06:54:41.518Z,349.09
2023-05-17T07:00:43.338Z,348.67
2023-05-17T07:05:11.915Z,348.49
2023-05-17T07:10:23.812Z,348.31
2023-05-17T07:15:31.370Z,348.02
2023-05-17T07:20:50.563Z,347.55
2023-05-17T07:25:53.486Z,346.80
2023-05-17T07:31:05.281Z,346.53
2023-05-17T07:37:18.329Z,346.03
2023-05-17T07:42:05.619Z,345.81
2023-05-17T07:47:35.250Z,346.54
2023-05-17T07:53:16.126Z,345.07
2023-05-17T07:58:33.314Z,346.35
2023-05-17T08:04:28.008Z,345.86
2023-05-17T08:09:41.788Z,346.37
2023-05-17T08:14:51.421Z,345.73
2023-05-17T08:19:58.604Z,345.08
2023-05-17T08:25:05.719Z,344.37
2023-05-17T08:30:18.113Z,344.29
2023-05-17T08:35:20.306Z,344.07
2023-05-17T08:40:33.890Z,343.91
2023-05-17T08:45:59.079Z,343.72
2023-05-17T08:51:58.369Z,343.26
2023-05-17T08:57:09.017Z,343.69
2023-05-17T09:02:16.784Z,343.46
2023-05-17T09:07:36.498Z,343.44
2023-05-17T09:13:28.952Z,343.00
2023-05-17T09:18:10.583Z,343.20
2023-05-17T09:23:19.132Z,342.64
2023-05-17T09:28:54.892Z,342.69
2023-05-17T09:34:43.343Z,341.78
2023-05-17T09:39:58.735Z,341.66
2023-05-17T09:45:15.393Z,341.39
2023-05-17T09:50:38.901Z,340.61
2023-05-17T09:55:51.795Z,341.07
2023-05-17T10:01:04.978Z,339.72
2023-05-17T10:06:13.421Z,340.33
2023-05-17T10:11:19.761Z,340.02
2023-05-17T10:16:34.555Z,340.98
2023-05-17T10:21:41.313Z,341.74
2023-05-17T10:26:48.520Z,341.94
2023-05-17T10:31:55.693Z,341.19
2023-05-17T10:37:02.925Z,341.70
2023-05-17T10:42:14.804Z,341.56
2023-05-17T10:47:17.569Z,341.71
2023-05-17T10:52:24.839Z,341.34
2023-05-17T10:57:36.094Z,341.42
2023-05-17T11:02:39.291Z,341.67
2023-05-17T11:07:46.484Z,341.13
2023-05-17T11:12:53.885Z,341.25
2023-05-17T11:18:01.379Z,341.16
2023-05-17T11:23:09.084Z,341.33
2023-05-17T11:28:16.559Z,341.94
2023-05-17T11:33:33.495Z,342.59
2023-05-17T11:38:31.184Z,343.37
2023-05-17T11:43:38.463Z,343.35
2023-05-17T11:48:45.818Z,343.52
2023-05-17T11:53:56.418Z,342.97
2023-05-17T11:59:01.549Z,343.18
2023-05-17T12:04:09.128Z,343.88
2023-05-17T12:09:23.844Z,343.47
2023-05-17T12:14:28.073Z,344.26
2023-05-17T12:19:36.560Z,344.02
2023-05-17T12:24:54.131Z,343.55
2023-05-17T12:29:53.670Z,343.29
2023-05-17T12:35:11.894Z,343.95
2023-05-17T12:40:25.584Z,343.70
2023-05-17T12:45:33.041Z,344.01
2023-05-17T12:50:40.225Z,343.85
2023-05-17T12:55:47.453Z,344.41
2023-05-17T13:00:54.645Z,345.00
2023-05-17T13:06:01.878Z,344.54
2023-05-17T13:11:09.076Z,345.54
2023-05-17T13:16:16.317Z,345.53
2023-05-17T13:21:23.530Z,344.72
2023-05-17T13:26:42.620Z,345.02
2023-05-17T13:31:50.115Z,344.68
2023-05-17T13:37:00.133Z,344.70
2023-05-17T13:42:14.918Z,344.80
2023-05-17T13:47:22.148Z,345.19
2023-05-17T13:52:29.322Z,344.38
2023-05-17T13:57:36.635Z,344.35
2023-05-17T14:02:44.093Z,344.50
2023-05-17T14:08:06.312Z,344.72
2023-05-17T14:13:13.594Z,344.79
2023-05-17T14:18:21.092Z,344.52
2023-05-17T14:23:31.391Z,345.26
2023-05-17T14:28:38.634Z,345.78
2023-05-17T14:33:45.813Z,345.95
2023-05-17T14:38:53.018Z,345.37
2023-05-17T14:44:00.298Z,345.48
2023-05-17T14:49:07.540Z,345.96
2023-05-17T14:54:14.694Z,345.85
2023-05-17T14:59:21.930Z,345.64
2023-05-17T15:04:29.196Z,346.31
2023-05-17T15:09:36.277Z,346.21
2023-05-17T15:14:43.454Z,345.52
2023-05-17T15:19:50.879Z,345.68
2023-05-17T15:24:58.124Z,345.75
2023-05-17T15:30:05.334Z,345.91
2023-05-17T15:35:12.461Z,345.04
2023-05-17T15:40:19.646Z,344.86
2023-05-17T15:45:26.942Z,344.69
2023-05-17T15:50:34.076Z,345.15
2023-05-17T15:55:41.386Z,344.96
2023-05-17T16:00:48.697Z,344.97
2023-05-17T16:05:55.949Z,345.36
2023-05-17T16:11:03.052Z,345.51
2023-05-17T16:16:13.419Z,345.13
2023-05-17T16:21:23.164Z,344.83
2023-05-17T16:26:30.518Z,344.63
2023-05-17T16:31:38.071Z,344.76
2023-05-17T16:36:45.522Z,345.01
2023-05-17T16:41:53.030Z,344.61
2023-05-17T16:47:00.679Z,344.74
2023-05-17T16:52:08.293Z,344.79
2023-05-17T16:57:16.009Z,344.42
2023-05-17T17:02:23.697Z,344.38
2023-05-17T17:07:31.242Z,344.60
2023-05-17T17:12:38.860Z,343.87
2023-05-17T17:17:46.738Z,344.15
2023-05-17T17:22:54.277Z,344.34
2023-05-17T17:28:02.012Z,344.57
2023-05-17T17:33:09.856Z,344.79
2023-05-17T17:38:17.440Z,344.71
2023-05-17T17:43:25.046Z,344.51
2023-05-17T17:48:32.793Z,344.45
2023-05-17T17:53:40.792Z,344.32
2023-05-17T17:58:48.705Z,343.93
2023-05-17T18:03:56.352Z,344.22
2023-05-17T18:09:04.051Z,343.92
2023-05-17T18:14:11.780Z,344.33
2023-05-17T18:19:19.732Z,344.38
2023-05-17T18:24:27.301Z,343.90
2023-05-17T18:29:35.023Z,344.28
2023-05-17T18:34:42.698Z,344.50
2023-05-17T18:39:50.441Z,345.28
2023-05-17T18:44:58.184Z,345.17
2023-05-17T18:50:05.903Z,345.20
2023-05-17T18:55:13.905Z,345.30
2023-05-17T19:00:21.733Z,345.27
2023-05-17T19:05:29.557Z,344.92
2023-05-17T19:10:37.154Z,344.42
2023-05-17T19:15:44.999Z,343.97
2023-05-17T19:20:53.132Z,343.86
2023-05-17T19:26:00.314Z,344.09
2023-05-17T19:31:08.145Z,344.02
2023-05-17T19:36:15.655Z,344.19
2023-05-17T19:41:23.354Z,344.22
2023-05-17T19:46:31.149Z,344.33
2023-05-17T19:51:38.919Z,343.92
2023-05-17T19:56:47.174Z,343.70
2023-05-17T20:01:54.758Z,343.44
2023-05-17T20:07:02.582Z,343.74
2023-05-17T20:12:10.200Z,343.61
2023-05-17T20:17:17.985Z,343.47
2023-05-17T20:22:25.831Z,342.95
2023-05-17T20:27:33.438Z,342.27
2023-05-17T20:32:41.297Z,342.28
2023-05-17T20:37:49.085Z,342.19
2023-05-17T20:42:56.870Z,341.70
2023-05-17T20:48:04.546Z,341.61
2023-05-17T20:53:12.233Z,342.67
2023-05-17T20:58:20.140Z,341.63
2023-05-17T21:03:28.045Z,341.65
2023-05-17T21:08:34.752Z,342.19
2023-05-17T21:13:41.907Z,342.42
2023-05-17T21:18:49.427Z,342.75
2023-05-17T21:23:56.630Z,342.82
2023-05-17T21:29:03.980Z,343.37
2023-05-17T21:34:11.194Z,343.78
2023-05-17T21:39:18.501Z,343.99
2023-05-17T21:44:25.715Z,343.73
2023-05-17T21:49:32.944Z,343.89
2023-05-17T21:54:40.260Z,344.57
2023-05-17T21:59:47.489Z,344.47
2023-05-17T22:04:54.796Z,344.66
2023-05-17T22:10:02.352Z,344.37
2023-05-17T22:15:09.553Z,344.58
2023-05-17T22:20:16.737Z,344.82
2023-05-17T22:25:24.124Z,345.14
2023-05-17T22:30:31.714Z,345.53
2023-05-17T22:35:38.804Z,345.39
2023-05-17T22:40:46.066Z,345.62
2023-05-17T22:45:53.332Z,345.54
2023-05-17T22:51:00.772Z,346.45
2023-05-17T22:56:43.693Z,346.50
2023-05-17T23:02:06.745Z,347.07
2023-05-17T23:07:24.466Z,346.63
2023-05-17T23:12:36.769Z,347.40
2023-05-17T23:17:58.124Z,347.93
2023-05-17T23:23:01.180Z,348.13
2023-05-17T23:28:38.728Z,348.16
2023-05-17T23:33:49.107Z,348.85
2023-05-17T23:39:04.500Z,349.45
2023-05-17T23:44:07.015Z,349.77
2023-05-17T23:49:29.456Z,350.93
2023-05-17T23:54:38.386Z,350.77
2023-05-17T23:59:49.171Z,351.09
